Home > Products > Valid Products > TAF

000
FTUS43 KLBF 272335
TAFLBF
TAF
KLBF 272335Z 2800/2824 04006KT P6SM VCTS BKN060CB BKN100
     FM280300 VRB04KT P6SM OVC050
      TEMPO 2803/2806 VRB03KT -TSRA BKN030CB
     FM280600 VRB04KT P6SM OVC035
     FM281400 32006KT P6SM SCT060=



000
FTUS43 KLBF 272335
TAFVTN
TAF
KVTN 272335Z 2800/2824 VRB06KT P6SM SCT040
     FM280300 VRB03KT P6SM VCSH BKN040
     FM280800 35004KT P6SM SCT025 OVC040
     FM281500 33007KT P6SM SCT050 SCT100=



000
FTUS43 KLBF 270520
TAFLBF
TAF
KLBF 270520Z 2706/2806 VRB06KT 3SM SHRA BR SCT025 OVC040
      TEMPO 2706/2709 2SM SHRA BR OVC025
     FM270900 03011KT 4SM -SHRA BR OVC025
     FM271500 01015G18KT P6SM -SHRA OVC015
     FM271800 01013G18KT P6SM OVC050=



    US Dept of Commerce
    National Oceanic and Atmospheric Administration
    National Weather Service
    1325 East West Highway
    Silver Spring, MD 20910
    Page Author: NWS Internet Services Team
Disclaimer
Information Quality
Credits
Glossary
Privacy Policy
Freedom of Information Act (FOIA)
About Us
Career Opportunities